Shtandart — UAEM — position and weather

sailwx.info

Track history (hours):
 
Tides and Currents Weather Stations Pressure Air Temp Water Temp Dewpoint Dewpoint Depression Visibility Wind Speed Wind Dir Waves Ship Positions

Shtandart

Re-creation of early 1700's Russian naval frigate.

Last reported at 2019-Jun-16 23:29 UTC. Time now 2019-Jun-17 19:16 UTC.
Position N 49°29' E 000°29'.

Length 26 m; draft 3 m.

Type: Sailing vessel. MMSI: 273452840.

Date/timePositionNaut miles runAvg speedWind from/ knotsBaromVisibWave heightAir tempDewpointWater temp
2019-Jun-16 23:29N 49°29' E 000°29'0 0.0
2019-Jun-16 22:56N 49°29' E 000°29'0 0.0
2019-Jun-16 22:30N 49°29' E 000°29'0 0.0
2019-Jun-16 22:00N 49°29' E 000°29'0 0.0
2019-Jun-16 21:30N 49°29' E 000°29'0 0.0
2019-Jun-16 21:00N 49°29' E 000°29'0 0.0
2019-Jun-16 20:30N 49°29' E 000°29'0 0.0
2019-Jun-16 20:00N 49°29' E 000°29'0 0.0
2019-Jun-16 19:30N 49°29' E 000°29'0 0.0
2019-Jun-16 19:00N 49°29' E 000°29'1 1.2
2019-Jun-16 18:30N 49°29' E 000°30'3 6.9
2019-Jun-16 18:00N 49°27' E 000°34'4 7.8
2019-Jun-16 17:30N 49°28' E 000°40'4 8.2
2019-Jun-16 17:00N 49°31' E 000°43'4 7.6
2019-Jun-16 16:30N 49°29' E 000°47'4 7.6
2019-Jun-16 16:00N 49°25' E 000°48'2 4.9
2019-Jun-16 15:30N 49°25' E 000°52'4 7.8
2019-Jun-16 15:00N 49°29' E 000°53'3 6.8
2019-Jun-16 14:30N 49°26' E 000°56'5 9.2
2019-Jun-16 14:00N 49°22' E 000°55'3 6.1
2019-Jun-16 13:30N 49°22' E 000°60'3 6.1
2019-Jun-16 13:00N 49°25' E 001°01'2 4.4
2019-Jun-16 12:30N 49°27' E 001°04'1 1.2
2019-Jun-16 12:00N 49°27' E 001°04'0 0.0
2019-Jun-16 11:30N 49°27' E 001°05'0 0.0
2019-Jun-16 10:51N 49°27' E 001°04'0 0.0
2019-Jun-16 10:30N 49°27' E 001°05'0 0.0
2019-Jun-16 10:00N 49°27' E 001°05'0 0.0
2019-Jun-16 09:30N 49°27' E 001°04'0 0.0
2019-Jun-16 09:00N 49°27' E 001°04'0 0.0
2019-Jun-16 08:27N 49°27' E 001°04'0 0.0
2019-Jun-16 07:51N 49°27' E 001°04'0 0.0
2019-Jun-16 07:21N 49°27' E 001°04'0 0.0
2019-Jun-16 06:57N 49°27' E 001°04'0 0.0
2019-Jun-16 06:27N 49°27' E 001°05'0 0.0
2019-Jun-16 05:57N 49°27' E 001°04'0 0.0
2019-Jun-16 05:30N 49°27' E 001°04'0 0.0
2019-Jun-16 04:57N 49°27' E 001°04'0 0.0
2019-Jun-16 04:30N 49°27' E 001°04'0 0.0
2019-Jun-16 04:00N 49°27' E 001°04'0 0.0
2019-Jun-16 03:30N 49°27' E 001°04'0 0.0
2019-Jun-16 03:00N 49°27' E 001°04'0 0.0
2019-Jun-16 02:30N 49°27' E 001°04'0 0.0
2019-Jun-16 02:00N 49°27' E 001°05'0 0.0
2019-Jun-16 01:30N 49°27' E 001°04'0 0.0
2019-Jun-16 01:00N 49°27' E 001°04'0 0.0
2019-Jun-16 00:27N 49°27' E 001°04'0 0.0
2019-Jun-15 23:54N 49°27' E 001°04'0 0.0
2019-Jun-15 23:27N 49°27' E 001°04'0 0.0
2019-Jun-15 23:00N 49°27' E 001°04'0 0.0
2019-Jun-15 22:30N 49°27' E 001°05'0 0.0
2019-Jun-15 22:00N 49°27' E 001°05'0 0.0
2019-Jun-15 21:30N 49°27' E 001°05'0 0.0
2019-Jun-15 20:54N 49°27' E 001°04'0 0.0
2019-Jun-15 20:21N 49°27' E 001°04'0 0.0
2019-Jun-15 19:57N 49°27' E 001°04'0 0.0
2019-Jun-15 19:30N 49°27' E 001°04'0 0.0
2019-Jun-15 18:57N 49°27' E 001°04'0 0.0
2019-Jun-15 18:30N 49°27' E 001°05'0 0.0
2019-Jun-15 18:00N 49°27' E 001°04'0 0.0
2019-Jun-15 17:30N 49°27' E 001°04'0 0.0
2019-Jun-15 17:00N 49°27' E 001°04'0 0.0
2019-Jun-15 16:30N 49°27' E 001°04'0 0.0
2019-Jun-15 16:00N 49°27' E 001°04'0 0.0
2019-Jun-15 15:21N 49°27' E 001°04'0 0.0
2019-Jun-15 15:00N 49°27' E 001°05'0 0.0
2019-Jun-15 14:30N 49°27' E 001°04'0 0.0
2019-Jun-15 13:57N 49°27' E 001°05'0 0.0
2019-Jun-15 13:30N 49°27' E 001°04'0 0.0
2019-Jun-15 13:00N 49°27' E 001°04'0 0.0
2019-Jun-15 12:30N 49°27' E 001°05'0 0.0
2019-Jun-15 11:57N 49°27' E 001°04'0 0.0
2019-Jun-15 11:30N 49°27' E 001°05'0 0.0
2019-Jun-15 11:00N 49°27' E 001°04'0 0.0
2019-Jun-15 10:30N 49°27' E 001°04'0 0.0
2019-Jun-15 09:54N 49°27' E 001°04'0 0.0
2019-Jun-15 09:30N 49°27' E 001°04'0 0.0
2019-Jun-15 09:00N 49°27' E 001°04'0 0.0
2019-Jun-15 08:30N 49°27' E 001°04'0 0.0
2019-Jun-15 08:00N 49°27' E 001°04'0 0.0
2019-Jun-15 07:24N 49°27' E 001°04'0 0.0
2019-Jun-15 07:00N 49°27' E 001°04'0 0.0
2019-Jun-15 06:27N 49°27' E 001°04'0 0.0
2019-Jun-15 06:00N 49°27' E 001°04'0 0.0
2019-Jun-15 05:27N 49°27' E 001°04'0 0.0
2019-Jun-15 05:00N 49°27' E 001°04'0 0.0
2019-Jun-15 04:30N 49°27' E 001°04'0 0.0
2019-Jun-15 03:54N 49°27' E 001°04'0 0.0
2019-Jun-15 03:30N 49°27' E 001°04'0 0.0
2019-Jun-15 03:00N 49°27' E 001°04'0 0.0
2019-Jun-15 02:27N 49°27' E 001°04'0 0.0
2019-Jun-15 01:57N 49°27' E 001°04'0 0.0
2019-Jun-15 01:30N 49°27' E 001°04'0 0.0
2019-Jun-15 00:54N 49°27' E 001°04'0 0.0
2019-Jun-15 00:15N 49°27' E 001°04'0 0.0
2019-Jun-14 23:57N 49°27' E 001°04'0 0.0
2019-Jun-14 23:30N 49°27' E 001°04'0 0.0
2019-Jun-14 23:00N 49°27' E 001°04'0 0.0
2019-Jun-14 22:21N 49°27' E 001°05'0 0.0
2019-Jun-14 22:00N 49°27' E 001°04'0 0.0
2019-Jun-14 21:30N 49°27' E 001°05'0 0.0
2019-Jun-14 21:00N 49°27' E 001°04'0 0.0
2019-Jun-14 20:24N 49°27' E 001°04'0 0.0
2019-Jun-14 20:00N 49°27' E 001°04'0 0.0
2019-Jun-14 19:30N 49°27' E 001°04'0 0.0
2019-Jun-14 18:57N 49°27' E 001°04'0 0.0
2019-Jun-14 18:24N 49°27' E 001°04'0 0.0
2019-Jun-14 17:57N 49°27' E 001°04'0 0.0
2019-Jun-14 17:21N 49°27' E 001°04'0 0.0
2019-Jun-14 17:00N 49°27' E 001°04'0 0.0
2019-Jun-14 16:30N 49°27' E 001°04'0 0.0
2019-Jun-14 16:00N 49°27' E 001°04'0 0.0
2019-Jun-14 15:27N 49°27' E 001°05'0 0.0
2019-Jun-14 15:00N 49°27' E 001°05'0 0.0
2019-Jun-14 14:27N 49°27' E 001°04'0 0.0
2019-Jun-14 14:00N 49°27' E 001°04'0 0.0
2019-Jun-14 13:30N 49°27' E 001°05'0 0.0
2019-Jun-14 13:00N 49°27' E 001°04'0 0.0
2019-Jun-14 12:30N 49°27' E 001°05'0 0.0
2019-Jun-14 12:00N 49°27' E 001°04'0 0.0
2019-Jun-14 11:24N 49°27' E 001°05'0 0.0
2019-Jun-14 11:00N 49°27' E 001°04'0 0.0
2019-Jun-14 10:30N 49°27' E 001°04'0 0.0
2019-Jun-14 09:57N 49°27' E 001°05'0 0.0
2019-Jun-14 09:27N 49°27' E 001°04'0 0.0
2019-Jun-14 09:00N 49°27' E 001°04'0 0.0
2019-Jun-14 08:30N 49°27' E 001°04'0 0.0
2019-Jun-14 07:57N 49°27' E 001°04'0 0.0
2019-Jun-14 07:27N 49°27' E 001°04'0 0.0
2019-Jun-14 06:57N 49°27' E 001°04'0 0.0
2019-Jun-14 06:21N 49°27' E 001°04'0 0.0
2019-Jun-14 06:00N 49°27' E 001°04'0 0.0
2019-Jun-14 05:24N 49°27' E 001°04'0 0.0
2019-Jun-14 04:54N 49°27' E 001°04'0 0.0
2019-Jun-14 04:30N 49°27' E 001°05'0 0.0
2019-Jun-14 04:00N 49°27' E 001°04'0 0.0
2019-Jun-14 03:30N 49°27' E 001°04'0 0.0
2019-Jun-14 03:00N 49°27' E 001°04'0 0.0
2019-Jun-14 02:30N 49°27' E 001°05'0 0.0
2019-Jun-14 02:00N 49°27' E 001°04'0 0.0
2019-Jun-14 01:30N 49°27' E 001°05'0 0.0
2019-Jun-14 01:00N 49°27' E 001°05'0 0.0
2019-Jun-14 00:30N 49°27' E 001°04'0 0.0
2019-Jun-14 00:00N 49°27' E 001°04'0 0.0
2019-Jun-13 23:30N 49°27' E 001°04'0 0.0
2019-Jun-13 22:57N 49°27' E 001°04'0 0.0
2019-Jun-13 22:27N 49°27' E 001°04'0 0.0
2019-Jun-13 22:00N 49°27' E 001°05'0 0.0
2019-Jun-13 21:30N 49°27' E 001°04'0 0.0
2019-Jun-13 20:57N 49°27' E 001°04'0 0.0
2019-Jun-13 20:30N 49°27' E 001°04'0 0.0
2019-Jun-13 20:00N 49°27' E 001°04'0 0.0
2019-Jun-13 19:30N 49°27' E 001°05'0 0.0
2019-Jun-13 19:00N 49°27' E 001°04'0 0.0
2019-Jun-13 18:24N 49°27' E 001°04'0 0.0
2019-Jun-13 18:00N 49°27' E 001°04'0 0.0
2019-Jun-13 17:30N 49°27' E 001°05'0 0.0
2019-Jun-13 17:00N 49°27' E 001°05'0 0.0
2019-Jun-13 16:27N 49°27' E 001°05'0 0.0
2019-Jun-13 15:54N 49°27' E 001°04'0 0.0
2019-Jun-13 15:24N 49°27' E 001°04'0 0.0
2019-Jun-13 14:57N 49°27' E 001°05'0 0.0
2019-Jun-13 14:30N 49°27' E 001°04'0 0.0
2019-Jun-13 13:57N 49°27' E 001°04'0 0.0
2019-Jun-13 13:21N 49°27' E 001°04'0 0.0
2019-Jun-13 13:00N 49°27' E 001°04'0 0.0
2019-Jun-13 12:21N 49°27' E 001°04'0 0.0
2019-Jun-13 11:57N 49°27' E 001°04'0 0.0
2019-Jun-13 11:21N 49°27' E 001°04'0 0.0
2019-Jun-13 10:57N 49°27' E 001°04'0 0.0
2019-Jun-13 10:27N 49°27' E 001°04'0 0.0
2019-Jun-13 09:57N 49°27' E 001°05'0 0.0
2019-Jun-13 09:21N 49°27' E 001°04'0 0.0
2019-Jun-13 08:54N 49°27' E 001°04'0 0.0
2019-Jun-13 08:21N 49°27' E 001°04'0 0.0
2019-Jun-13 07:51N 49°27' E 001°04'0 0.0
2019-Jun-13 07:30N 49°27' E 001°04'0 0.0
2019-Jun-13 06:57N 49°27' E 001°04'0 0.0
2019-Jun-13 06:27N 49°27' E 001°04'0 0.0
2019-Jun-13 05:57N 49°27' E 001°04'0 0.0
2019-Jun-13 05:30N 49°27' E 001°04'0 0.0
2019-Jun-13 04:57N 49°27' E 001°04'0 0.0
2019-Jun-13 04:21N 49°27' E 001°04'0 0.0
2019-Jun-13 03:51N 49°27' E 001°04'0 0.0
2019-Jun-13 03:27N 49°27' E 001°04'0 0.0
2019-Jun-13 02:57N 49°27' E 001°04'0 0.0
2019-Jun-13 02:27N 49°27' E 001°05'0 0.0
2019-Jun-13 01:57N 49°27' E 001°05'0 0.0
2019-Jun-13 01:24N 49°27' E 001°05'0 0.0
2019-Jun-13 01:00N 49°27' E 001°05'0 0.0
2019-Jun-13 00:27N 49°27' E 001°04'0 0.0
2019-Jun-12 23:57N 49°27' E 001°04'0 0.0
2019-Jun-12 23:27N 49°27' E 001°05'0 0.0
2019-Jun-12 22:48N 49°27' E 001°05'0 0.0
2019-Jun-12 22:30N 49°27' E 001°04'0 0.0
2019-Jun-12 21:51N 49°27' E 001°05'0 0.0
2019-Jun-12 21:24N 49°27' E 001°04'0 0.0
2019-Jun-12 21:00N 49°27' E 001°04'0 0.0
2019-Jun-12 20:27N 49°27' E 001°04'0 0.0
2019-Jun-12 19:54N 49°27' E 001°04'0 0.0
2019-Jun-12 19:30N 49°27' E 001°04'0 0.0
2019-Jun-12 18:57N 49°27' E 001°04'0 0.0
2019-Jun-12 18:27N 49°27' E 001°04'0 0.0
2019-Jun-12 17:48N 49°27' E 001°04'0 0.0
2019-Jun-12 17:06N 49°27' E 001°04'0 0.0
2019-Jun-12 16:51N 49°27' E 001°05'0 0.0
2019-Jun-12 16:21N 49°27' E 001°04'0 0.0
2019-Jun-12 15:51N 49°27' E 001°04'0 0.0
2019-Jun-12 15:27N 49°27' E 001°04'0 0.0
2019-Jun-12 14:57N 49°27' E 001°04'0 0.0
2019-Jun-12 14:30N 49°27' E 001°04'0 0.0
2019-Jun-12 13:51N 49°27' E 001°04'0 0.0
2019-Jun-12 13:24N 49°27' E 001°04'0 0.0
2019-Jun-12 12:54N 49°27' E 001°04'0 0.0
2019-Jun-12 12:21N 49°27' E 001°04'0 0.0
2019-Jun-12 11:51N 49°27' E 001°04'0 0.0
2019-Jun-12 11:27N 49°27' E 001°04'0 0.1
2019-Jun-12 10:51N 49°27' E 001°05'0 0.1
2019-Jun-12 10:21N 49°27' E 001°04'0 0.0
2019-Jun-12 09:57N 49°27' E 001°04'0 0.0
2019-Jun-12 09:30N 49°27' E 001°04'0 0.0
2019-Jun-12 08:57N 49°27' E 001°04'0 0.0
2019-Jun-12 08:21N 49°27' E 001°04'0 0.0
2019-Jun-12 07:54N 49°27' E 001°04'0 0.0
2019-Jun-12 07:27N 49°27' E 001°04'0 0.0
2019-Jun-12 06:57N 49°27' E 001°04'0 0.0
2019-Jun-12 06:27N 49°27' E 001°04'0 0.0
2019-Jun-12 05:54N 49°27' E 001°04'0 0.0
2019-Jun-12 05:24N 49°27' E 001°04'0 0.0
2019-Jun-12 04:54N 49°27' E 001°05'0 0.0
2019-Jun-12 04:27N 49°27' E 001°04'0 0.0
2019-Jun-12 03:51N 49°27' E 001°04'0 0.0
2019-Jun-12 03:27N 49°27' E 001°04'0 0.0
2019-Jun-12 02:57N 49°27' E 001°04'0 0.0
2019-Jun-12 01:54N 49°27' E 001°04'0 0.0
2019-Jun-12 01:30N 49°27' E 001°05'0 0.0
2019-Jun-12 00:57N 49°27' E 001°04'0 0.0
2019-Jun-12 00:24N 49°27' E 001°05'0 0.0
2019-Jun-12 00:00N 49°27' E 001°04'0 0.0
2019-Jun-11 23:24N 49°27' E 001°04'0 0.0
2019-Jun-11 23:00N 49°27' E 001°04'0 0.0
2019-Jun-11 22:27N 49°27' E 001°04'0 0.0
2019-Jun-11 21:51N 49°27' E 001°04'0 0.0
2019-Jun-11 21:27N 49°27' E 001°05'0 0.0
2019-Jun-11 20:57N 49°27' E 001°04'0 0.0
2019-Jun-11 20:27N 49°27' E 001°04'0 0.0
2019-Jun-11 20:00N 49°27' E 001°04'0 0.0
2019-Jun-11 19:24N 49°27' E 001°04'0 0.0
2019-Jun-11 18:57N 49°27' E 001°04'0 0.0
2019-Jun-11 18:21N 49°27' E 001°05'0 0.0
2019-Jun-11 17:51N 49°27' E 001°05'0 0.0
2019-Jun-11 17:24N 49°27' E 001°05'0 0.0
2019-Jun-11 16:54N 49°27' E 001°04'0 0.0
2019-Jun-11 16:27N 49°27' E 001°04'0 0.0
2019-Jun-11 15:54N 49°27' E 001°05'0 0.0
2019-Jun-11 15:06N 49°27' E 001°04'0 0.0
2019-Jun-11 14:57N 49°27' E 001°04'0 0.0
2019-Jun-11 14:21N 49°27' E 001°04'0 0.0
2019-Jun-11 13:51N 49°27' E 001°04'0 0.0
2019-Jun-11 13:15N 49°27' E 001°04'0 0.0
2019-Jun-11 13:00N 49°27' E 001°04'0 0.0
2019-Jun-11 12:24N 49°27' E 001°04'0 0.0
2019-Jun-11 11:57N 49°27' E 001°04'0 0.0
2019-Jun-11 11:27N 49°27' E 001°04'0 0.0
2019-Jun-11 10:57N 49°27' E 001°05'0 0.0
2019-Jun-11 10:24N 49°27' E 001°05'0 0.0
2019-Jun-11 09:57N 49°27' E 001°04'0 0.0
2019-Jun-11 09:21N 49°27' E 001°04'0 0.0
2019-Jun-11 08:57N 49°27' E 001°04'0 0.0
2019-Jun-11 08:30N 49°27' E 001°04'0 0.0
2019-Jun-11 08:00N 49°27' E 001°04'0 0.0
2019-Jun-11 07:21N 49°27' E 001°04'0 0.0
2019-Jun-11 06:57N 49°27' E 001°04'0 0.0
2019-Jun-11 06:27N 49°27' E 001°05'0 0.0
2019-Jun-11 05:57N 49°27' E 001°04'0 0.0
2019-Jun-11 05:27N 49°27' E 001°04'0 0.0
2019-Jun-11 04:57N 49°27' E 001°04'0 0.0
2019-Jun-11 04:09N 49°27' E 001°04'0 0.0
2019-Jun-11 03:57N 49°27' E 001°04'0 0.0
2019-Jun-11 03:27N 49°27' E 001°04'0 0.0
2019-Jun-11 02:57N 49°27' E 001°05'0 0.0
2019-Jun-11 02:21N 49°27' E 001°04'0 0.0
2019-Jun-11 02:00N 49°27' E 001°04'0 0.0
2019-Jun-11 01:24N 49°27' E 001°04'0 0.0
2019-Jun-11 00:54N 49°27' E 001°04'0 0.0
2019-Jun-11 00:30N 49°27' E 001°04'0 0.0
2019-Jun-11 00:00N 49°27' E 001°04'0 0.0
2019-Jun-10 23:27N 49°27' E 001°04'0 0.0
2019-Jun-10 22:57N 49°27' E 001°04'0 0.0
2019-Jun-10 22:24N 49°27' E 001°05'0 0.0
2019-Jun-10 21:57N 49°27' E 001°05'0 0.0
2019-Jun-10 21:27N 49°27' E 001°05'0 0.0
2019-Jun-10 20:57N 49°27' E 001°04'0 0.0
2019-Jun-10 20:27N 49°27' E 001°04'0 0.0
2019-Jun-10 19:57N 49°27' E 001°04'0 0.0
2019-Jun-10 19:27N 49°27' E 001°04'0 0.0
2019-Jun-10 18:51N 49°27' E 001°04'0 0.0
2019-Jun-10 18:30N 49°27' E 001°04'0 0.0
2019-Jun-10 17:57N 49°27' E 001°04'0 0.0
2019-Jun-10 17:30N 49°27' E 001°04'0 0.0
2019-Jun-10 16:57N 49°27' E 001°05'0 0.0
2019-Jun-10 16:27N 49°27' E 001°04'0 0.0
2019-Jun-10 15:57N 49°27' E 001°04'0 0.0
2019-Jun-10 15:30N 49°27' E 001°05'0 0.0
2019-Jun-10 14:54N 49°27' E 001°04'0 0.0
2019-Jun-10 14:27N 49°27' E 001°04'0 0.0
2019-Jun-10 13:54N 49°27' E 001°04'0 0.0
2019-Jun-10 13:27N 49°27' E 001°05'0 0.0
2019-Jun-10 12:57N 49°27' E 001°04'0 0.0
2019-Jun-10 12:27N 49°27' E 001°04'0 0.0
2019-Jun-10 12:00N 49°27' E 001°04'0 0.0
2019-Jun-10 11:21N 49°27' E 001°04'0 0.0
2019-Jun-10 10:51N 49°27' E 001°04'0 0.0
2019-Jun-10 10:27N 49°27' E 001°04'0 0.0
2019-Jun-10 09:54N 49°27' E 001°05'0 0.0
2019-Jun-10 09:24N 49°27' E 001°04'0 0.0
2019-Jun-10 08:51N 49°27' E 001°04'0 0.0
2019-Jun-10 08:24N 49°27' E 001°04'0 0.0
2019-Jun-10 07:39N 49°27' E 001°04'0 0.0
2019-Jun-10 07:27N 49°27' E 001°04'0 0.0
2019-Jun-10 06:51N 49°27' E 001°05'0 0.0
2019-Jun-10 06:21N 49°27' E 001°04'0 0.0
2019-Jun-10 05:57N 49°27' E 001°04'0 0.0
2019-Jun-10 05:30N 49°27' E 001°04'0 0.0
2019-Jun-10 04:54N 49°27' E 001°04'0 0.0
2019-Jun-10 04:27N 49°27' E 001°04'0 0.0
2019-Jun-10 03:54N 49°27' E 001°04'0 0.0
2019-Jun-10 03:24N 49°27' E 001°05'0 0.0
2019-Jun-10 02:39N 49°27' E 001°05'0 0.0
2019-Jun-10 02:27N 49°27' E 001°05'0 0.0
2019-Jun-10 01:54N 49°27' E 001°04'0 0.0
2019-Jun-10 01:27N 49°27' E 001°05'0 0.0
2019-Jun-10 00:57N 49°27' E 001°04'0 0.0
2019-Jun-10 00:27N 49°27' E 001°04'0 0.0
2019-Jun-09 23:54N 49°27' E 001°05'0 0.0
2019-Jun-09 23:27N 49°27' E 001°04'0 0.0
2019-Jun-09 22:57N 49°27' E 001°04'0 0.0
2019-Jun-09 22:24N 49°27' E 001°05'0 0.0
2019-Jun-09 21:54N 49°27' E 001°05'0 0.0
2019-Jun-09 21:30N 49°27' E 001°04'0 0.0
2019-Jun-09 20:57N 49°27' E 001°04'0 0.0
2019-Jun-09 20:30N 49°27' E 001°04'0 0.0
2019-Jun-09 19:57N 49°27' E 001°05'0 0.0
2019-Jun-09 19:27N 49°27' E 001°04'0 0.0
2019-Jun-09 18:57N 49°27' E 001°04'0 0.0
2019-Jun-09 18:27N 49°27' E 001°04'0 0.0
2019-Jun-09 17:54N 49°27' E 001°04'0 0.0
2019-Jun-09 17:27N 49°27' E 001°04'0 0.0
2019-Jun-09 16:54N 49°27' E 001°05'0 0.0
2019-Jun-09 16:24N 49°27' E 001°04'0 0.0
2019-Jun-09 15:57N 49°27' E 001°04'0 0.0
2019-Jun-09 15:24N 49°27' E 001°04'0 0.0
2019-Jun-09 14:54N 49°27' E 001°04'0 0.0
2019-Jun-09 14:27N 49°27' E 001°04'0 0.0
2019-Jun-09 13:57N 49°27' E 001°04'0 0.0
2019-Jun-09 13:24N 49°27' E 001°04'0 0.0
2019-Jun-09 12:42N 49°27' E 001°04'0 0.0
2019-Jun-09 12:24N 49°27' E 001°04'0 0.0
2019-Jun-09 11:57N 49°27' E 001°04'0 0.0
2019-Jun-09 11:30N 49°27' E 001°04'0 0.0
2019-Jun-09 11:00N 49°27' E 001°05'0 0.0
2019-Jun-09 10:30N 49°27' E 001°04'0 0.0
2019-Jun-09 09:57N 49°27' E 001°04'0 0.0
2019-Jun-09 09:27N 49°27' E 001°04'0 0.0
2019-Jun-09 08:57N 49°27' E 001°04'0 0.0
2019-Jun-09 08:24N 49°27' E 001°04'0 0.0
2019-Jun-09 08:00N 49°27' E 001°05'0 0.0
2019-Jun-09 07:24N 49°27' E 001°04'0 0.0
2019-Jun-09 07:00N 49°27' E 001°04'0 0.0
2019-Jun-09 06:30N 49°27' E 001°05'0 0.0
2019-Jun-09 06:00N 49°27' E 001°05'0 0.0
2019-Jun-09 05:30N 49°27' E 001°05'0 0.0
2019-Jun-09 05:00N 49°27' E 001°05'0 0.0
2019-Jun-09 03:57N 49°27' E 001°04'0 0.0
2019-Jun-09 03:19N 49°27' E 001°04'0 0.0
2019-Jun-09 02:58N 49°27' E 001°04'0 0.0
2019-Jun-09 02:28N 49°27' E 001°05'0 0.0
2019-Jun-09 01:58N 49°27' E 001°04'0 0.0
2019-Jun-09 01:22N 49°27' E 001°04'0 0.1
2019-Jun-09 00:58N 49°27' E 001°04'0 0.0
2019-Jun-09 00:28N 49°27' E 001°04'0 0.0
2019-Jun-08 23:49N 49°27' E 001°04'0 0.0
2019-Jun-08 23:22N 49°27' E 001°04'0 0.0
2019-Jun-08 23:01N 49°27' E 001°05'0 0.0
2019-Jun-08 22:28N 49°27' E 001°05'0 0.0
2019-Jun-08 22:01N 49°27' E 001°05'0 0.0
2019-Jun-08 21:30N 49°27' E 001°04'0 0.0
2019-Jun-08 21:01N 49°27' E 001°04'0 0.0
2019-Jun-08 20:30N 49°27' E 001°04'0 0.0
2019-Jun-08 20:01N 49°27' E 001°05'0 0.0
2019-Jun-08 19:04N 49°27' E 001°04'0 0.0
2019-Jun-08 18:55N 49°27' E 001°05'0 0.0
2019-Jun-08 18:28N 49°27' E 001°04'0 0.0
2019-Jun-08 17:58N 49°27' E 001°04'0 0.0
2019-Jun-08 17:28N 49°27' E 001°05'0 0.0
2019-Jun-08 16:58N 49°27' E 001°05'0 0.0
2019-Jun-08 16:31N 49°27' E 001°05'0 0.0
2019-Jun-08 16:01N 49°27' E 001°04'0 0.0
2019-Jun-08 15:30N 49°27' E 001°05'0 0.0
2019-Jun-08 15:01N 49°27' E 001°04'0 0.0
2019-Jun-08 14:28N 49°27' E 001°04'0 0.0
2019-Jun-08 13:58N 49°27' E 001°04'0 0.0
2019-Jun-08 13:22N 49°27' E 001°04'0 0.0
2019-Jun-08 12:58N 49°27' E 001°05'0 0.0
2019-Jun-08 12:28N 49°27' E 001°04'0 0.0
2019-Jun-08 12:01N 49°27' E 001°05'0 0.0
2019-Jun-08 11:27N 49°27' E 001°04'0 0.0
2019-Jun-08 10:52N 49°27' E 001°04'0 0.0
2019-Jun-08 10:28N 49°27' E 001°04'0 0.0
2019-Jun-08 09:58N 49°27' E 001°05'0 0.0
2019-Jun-08 09:31N 49°27' E 001°04'0 0.0
2019-Jun-08 09:01N 49°27' E 001°04'0 0.0
2019-Jun-08 08:19N 49°27' E 001°04'0 0.0
2019-Jun-08 08:01N 49°27' E 001°04'0 0.0
2019-Jun-08 07:28N 49°27' E 001°04'0 0.0
2019-Jun-08 06:48N 49°27' E 001°04'0 0.0
2019-Jun-08 06:31N 49°27' E 001°04'0 0.0
2019-Jun-08 05:52N 49°27' E 001°04'0 0.0
2019-Jun-08 05:28N 49°27' E 001°04'0 0.0
2019-Jun-08 05:01N 49°27' E 001°04'0 0.0
2019-Jun-08 04:28N 49°27' E 001°05'0 0.0
2019-Jun-08 03:58N 49°27' E 001°05'0 0.0
2019-Jun-08 03:24N 49°27' E 001°04'0 0.0
2019-Jun-08 02:58N 49°27' E 001°04'0 0.0
2019-Jun-08 02:28N 49°27' E 001°05'0 0.0
2019-Jun-08 02:01N 49°27' E 001°04'0 0.0
2019-Jun-08 01:28N 49°27' E 001°05'0 0.0
2019-Jun-08 00:55N 49°27' E 001°04'0 0.0
2019-Jun-08 00:25N 49°27' E 001°04'0 0.0
2019-Jun-07 23:52N 49°27' E 001°04'0 0.0
2019-Jun-07 23:25N 49°27' E 001°04'0 0.0
2019-Jun-07 22:58N 49°27' E 001°04'0 0.0
2019-Jun-07 22:28N 49°27' E 001°05'0 0.0
2019-Jun-07 21:58N 49°27' E 001°04'0 0.0
2019-Jun-07 21:28N 49°27' E 001°04'0 0.0
2019-Jun-07 20:58N 49°27' E 001°04'0 0.0
2019-Jun-07 20:28N 49°27' E 001°04'0 0.0
2019-Jun-07 19:58N 49°27' E 001°04'0 0.0
2019-Jun-07 19:28N 49°27' E 001°04'0 0.0
2019-Jun-07 18:49N 49°27' E 001°04'0 0.0
2019-Jun-07 18:25N 49°27' E 001°05'0 0.0
2019-Jun-07 17:58N 49°27' E 001°05'0 0.0
2019-Jun-07 17:28N 49°27' E 001°04'0 0.0
2019-Jun-07 16:58N 49°27' E 001°04'0 0.0
2019-Jun-07 16:31N 49°27' E 001°05'0 0.0
2019-Jun-07 15:55N 49°27' E 001°04'0 0.0
2019-Jun-07 15:28N 49°27' E 001°04'0 0.0
2019-Jun-07 15:01N 49°27' E 001°04'0 0.0
2019-Jun-07 14:28N 49°27' E 001°05'0 0.0
2019-Jun-07 14:01N 49°27' E 001°04'0 0.0
2019-Jun-07 13:28N 49°27' E 001°04'0 0.0
2019-Jun-07 12:49N 49°27' E 001°04'0 0.0
2019-Jun-07 12:16N 49°27' E 001°04'0 0.0
2019-Jun-07 12:01N 49°27' E 001°05'0 0.0
2019-Jun-07 11:28N 49°27' E 001°04'0 0.0
2019-Jun-07 10:58N 49°27' E 001°05'0 0.0
2019-Jun-07 10:28N 49°27' E 001°05'0 0.0
2019-Jun-07 09:58N 49°27' E 001°04'0 0.0
2019-Jun-07 09:31N 49°27' E 001°04'0 0.0
2019-Jun-07 09:01N 49°27' E 001°04'0 0.0
2019-Jun-07 08:31N 49°27' E 001°04'0 0.0
2019-Jun-07 07:58N 49°27' E 001°04'0 0.0
2019-Jun-07 07:28N 49°27' E 001°04'0 0.0
2019-Jun-07 06:55N 49°27' E 001°04'0 0.0
2019-Jun-07 06:28N 49°27' E 001°04'0 0.0
2019-Jun-07 06:00N 49°27' E 001°04'0 0.0
2019-Jun-07 05:31N 49°27' E 001°04'0 0.0
2019-Jun-07 04:58N 49°27' E 001°04'0 0.0
2019-Jun-07 04:27N 49°27' E 001°04'0 0.0
2019-Jun-07 03:49N 49°27' E 001°04'0 0.0
2019-Jun-07 03:30N 49°27' E 001°04'0 0.0
2019-Jun-07 02:58N 49°27' E 001°04'0 0.0
2019-Jun-07 02:28N 49°27' E 001°05'0 0.0
2019-Jun-07 01:58N 49°27' E 001°04'0 0.0
2019-Jun-07 01:25N 49°27' E 001°04'0 0.0
2019-Jun-07 01:01N 49°27' E 001°04'1 1.7
2019-Jun-07 00:28N 49°27' E 001°03'0 0.0
2019-Jun-06 23:58N 49°27' E 001°03'0 0.0
2019-Jun-06 23:28N 49°27' E 001°03'0 0.0
2019-Jun-06 22:58N 49°27' E 001°03'  
Track history (hours):
 
Tides and Currents Weather Stations Pressure Air Temp Water Temp Dewpoint Dewpoint Depression Visibility Wind Speed Wind Dir Waves Ship Positions

Shtandart

Re-creation of early 1700's Russian naval frigate.

Last reported at 2019-Jun-16 23:29 UTC. Time now 2019-Jun-17 19:16 UTC.
Position N 49°29' E 000°29'.

Length 26 m; draft 3 m.

Type: Sailing vessel. MMSI: 273452840.

Date/timePositionNaut miles runAvg speedWind from/ knotsBaromVisibWave heightAir tempDewpointWater temp
2019-Jun-16 23:29N 49°29' E 000°29'0 0.0
2019-Jun-16 22:56N 49°29' E 000°29'0 0.0
2019-Jun-16 22:30N 49°29' E 000°29'0 0.0
2019-Jun-16 22:00N 49°29' E 000°29'0 0.0
2019-Jun-16 21:30N 49°29' E 000°29'0 0.0
2019-Jun-16 21:00N 49°29' E 000°29'0 0.0
2019-Jun-16 20:30N 49°29' E 000°29'0 0.0
2019-Jun-16 20:00N 49°29' E 000°29'0 0.0
2019-Jun-16 19:30N 49°29' E 000°29'0 0.0
2019-Jun-16 19:00N 49°29' E 000°29'1 1.2
2019-Jun-16 18:30N 49°29' E 000°30'3 6.9
2019-Jun-16 18:00N 49°27' E 000°34'4 7.8
2019-Jun-16 17:30N 49°28' E 000°40'4 8.2
2019-Jun-16 17:00N 49°31' E 000°43'4 7.6
2019-Jun-16 16:30N 49°29' E 000°47'4 7.6
2019-Jun-16 16:00N 49°25' E 000°48'2 4.9
2019-Jun-16 15:30N 49°25' E 000°52'4 7.8
2019-Jun-16 15:00N 49°29' E 000°53'3 6.8
2019-Jun-16 14:30N 49°26' E 000°56'5 9.2
2019-Jun-16 14:00N 49°22' E 000°55'3 6.1
2019-Jun-16 13:30N 49°22' E 000°60'3 6.1
2019-Jun-16 13:00N 49°25' E 001°01'2 4.4
2019-Jun-16 12:30N 49°27' E 001°04'1 1.2
2019-Jun-16 12:00N 49°27' E 001°04'0 0.0
2019-Jun-16 11:30N 49°27' E 001°05'0 0.0
2019-Jun-16 10:51N 49°27' E 001°04'0 0.0
2019-Jun-16 10:30N 49°27' E 001°05'0 0.0
2019-Jun-16 10:00N 49°27' E 001°05'0 0.0
2019-Jun-16 09:30N 49°27' E 001°04'0 0.0
2019-Jun-16 09:00N 49°27' E 001°04'0 0.0
2019-Jun-16 08:27N 49°27' E 001°04'0 0.0
2019-Jun-16 07:51N 49°27' E 001°04'0 0.0
2019-Jun-16 07:21N 49°27' E 001°04'0 0.0
2019-Jun-16 06:57N 49°27' E 001°04'0 0.0
2019-Jun-16 06:27N 49°27' E 001°05'0 0.0
2019-Jun-16 05:57N 49°27' E 001°04'0 0.0
2019-Jun-16 05:30N 49°27' E 001°04'0 0.0
2019-Jun-16 04:57N 49°27' E 001°04'0 0.0
2019-Jun-16 04:30N 49°27' E 001°04'0 0.0
2019-Jun-16 04:00N 49°27' E 001°04'0 0.0
2019-Jun-16 03:30N 49°27' E 001°04'0 0.0
2019-Jun-16 03:00N 49°27' E 001°04'0 0.0
2019-Jun-16 02:30N 49°27' E 001°04'0 0.0
2019-Jun-16 02:00N 49°27' E 001°05'0 0.0
2019-Jun-16 01:30N 49°27' E 001°04'0 0.0
2019-Jun-16 01:00N 49°27' E 001°04'0 0.0
2019-Jun-16 00:27N 49°27' E 001°04'0 0.0
2019-Jun-15 23:54N 49°27' E 001°04'0 0.0
2019-Jun-15 23:27N 49°27' E 001°04'0 0.0
2019-Jun-15 23:00N 49°27' E 001°04'0 0.0
2019-Jun-15 22:30N 49°27' E 001°05'0 0.0
2019-Jun-15 22:00N 49°27' E 001°05'0 0.0
2019-Jun-15 21:30N 49°27' E 001°05'0 0.0
2019-Jun-15 20:54N 49°27' E 001°04'0 0.0
2019-Jun-15 20:21N 49°27' E 001°04'0 0.0
2019-Jun-15 19:57N 49°27' E 001°04'0 0.0
2019-Jun-15 19:30N 49°27' E 001°04'0 0.0
2019-Jun-15 18:57N 49°27' E 001°04'0 0.0
2019-Jun-15 18:30N 49°27' E 001°05'0 0.0
2019-Jun-15 18:00N 49°27' E 001°04'0 0.0
2019-Jun-15 17:30N 49°27' E 001°04'0 0.0
2019-Jun-15 17:00N 49°27' E 001°04'0 0.0
2019-Jun-15 16:30N 49°27' E 001°04'0 0.0
2019-Jun-15 16:00N 49°27' E 001°04'0 0.0
2019-Jun-15 15:21N 49°27' E 001°04'0 0.0
2019-Jun-15 15:00N 49°27' E 001°05'0 0.0
2019-Jun-15 14:30N 49°27' E 001°04'0 0.0
2019-Jun-15 13:57N 49°27' E 001°05'0 0.0
2019-Jun-15 13:30N 49°27' E 001°04'0 0.0
2019-Jun-15 13:00N 49°27' E 001°04'0 0.0
2019-Jun-15 12:30N 49°27' E 001°05'0 0.0
2019-Jun-15 11:57N 49°27' E 001°04'0 0.0
2019-Jun-15 11:30N 49°27' E 001°05'0 0.0
2019-Jun-15 11:00N 49°27' E 001°04'0 0.0
2019-Jun-15 10:30N 49°27' E 001°04'0 0.0
2019-Jun-15 09:54N 49°27' E 001°04'0 0.0
2019-Jun-15 09:30N 49°27' E 001°04'0 0.0
2019-Jun-15 09:00N 49°27' E 001°04'0 0.0
2019-Jun-15 08:30N 49°27' E 001°04'0 0.0
2019-Jun-15 08:00N 49°27' E 001°04'0 0.0
2019-Jun-15 07:24N 49°27' E 001°04'0 0.0
2019-Jun-15 07:00N 49°27' E 001°04'0 0.0
2019-Jun-15 06:27N 49°27' E 001°04'0 0.0
2019-Jun-15 06:00N 49°27' E 001°04'0 0.0
2019-Jun-15 05:27N 49°27' E 001°04'0 0.0
2019-Jun-15 05:00N 49°27' E 001°04'0 0.0
2019-Jun-15 04:30N 49°27' E 001°04'0 0.0
2019-Jun-15 03:54N 49°27' E 001°04'0 0.0
2019-Jun-15 03:30N 49°27' E 001°04'0 0.0
2019-Jun-15 03:00N 49°27' E 001°04'0 0.0
2019-Jun-15 02:27N 49°27' E 001°04'0 0.0
2019-Jun-15 01:57N 49°27' E 001°04'0 0.0
2019-Jun-15 01:30N 49°27' E 001°04'0 0.0
2019-Jun-15 00:54N 49°27' E 001°04'0 0.0
2019-Jun-15 00:15N 49°27' E 001°04'0 0.0
2019-Jun-14 23:57N 49°27' E 001°04'0 0.0
2019-Jun-14 23:30N 49°27' E 001°04'0 0.0
2019-Jun-14 23:00N 49°27' E 001°04'0 0.0
2019-Jun-14 22:21N 49°27' E 001°05'0 0.0
2019-Jun-14 22:00N 49°27' E 001°04'0 0.0
2019-Jun-14 21:30N 49°27' E 001°05'0 0.0
2019-Jun-14 21:00N 49°27' E 001°04'0 0.0
2019-Jun-14 20:24N 49°27' E 001°04'0 0.0
2019-Jun-14 20:00N 49°27' E 001°04'0 0.0
2019-Jun-14 19:30N 49°27' E 001°04'0 0.0
2019-Jun-14 18:57N 49°27' E 001°04'0 0.0
2019-Jun-14 18:24N 49°27' E 001°04'0 0.0
2019-Jun-14 17:57N 49°27' E 001°04'0 0.0
2019-Jun-14 17:21N 49°27' E 001°04'0 0.0
2019-Jun-14 17:00N 49°27' E 001°04'0 0.0
2019-Jun-14 16:30N 49°27' E 001°04'0 0.0
2019-Jun-14 16:00N 49°27' E 001°04'0 0.0
2019-Jun-14 15:27N 49°27' E 001°05'0 0.0
2019-Jun-14 15:00N 49°27' E 001°05'0 0.0
2019-Jun-14 14:27N 49°27' E 001°04'0 0.0
2019-Jun-14 14:00N 49°27' E 001°04'0 0.0
2019-Jun-14 13:30N 49°27' E 001°05'0 0.0
2019-Jun-14 13:00N 49°27' E 001°04'0 0.0
2019-Jun-14 12:30N 49°27' E 001°05'0 0.0
2019-Jun-14 12:00N 49°27' E 001°04'0 0.0
2019-Jun-14 11:24N 49°27' E 001°05'0 0.0
2019-Jun-14 11:00N 49°27' E 001°04'0 0.0
2019-Jun-14 10:30N 49°27' E 001°04'0 0.0
2019-Jun-14 09:57N 49°27' E 001°05'0 0.0
2019-Jun-14 09:27N 49°27' E 001°04'0 0.0
2019-Jun-14 09:00N 49°27' E 001°04'0 0.0
2019-Jun-14 08:30N 49°27' E 001°04'0 0.0
2019-Jun-14 07:57N 49°27' E 001°04'0 0.0
2019-Jun-14 07:27N 49°27' E 001°04'0 0.0
2019-Jun-14 06:57N 49°27' E 001°04'0 0.0
2019-Jun-14 06:21N 49°27' E 001°04'0 0.0
2019-Jun-14 06:00N 49°27' E 001°04'0 0.0
2019-Jun-14 05:24N 49°27' E 001°04'0 0.0
2019-Jun-14 04:54N 49°27' E 001°04'0 0.0
2019-Jun-14 04:30N 49°27' E 001°05'0 0.0
2019-Jun-14 04:00N 49°27' E 001°04'0 0.0
2019-Jun-14 03:30N 49°27' E 001°04'0 0.0
2019-Jun-14 03:00N 49°27' E 001°04'0 0.0
2019-Jun-14 02:30N 49°27' E 001°05'0 0.0
2019-Jun-14 02:00N 49°27' E 001°04'0 0.0
2019-Jun-14 01:30N 49°27' E 001°05'0 0.0
2019-Jun-14 01:00N 49°27' E 001°05'0 0.0
2019-Jun-14 00:30N 49°27' E 001°04'0 0.0
2019-Jun-14 00:00N 49°27' E 001°04'0 0.0
2019-Jun-13 23:30N 49°27' E 001°04'0 0.0
2019-Jun-13 22:57N 49°27' E 001°04'0 0.0
2019-Jun-13 22:27N 49°27' E 001°04'0 0.0
2019-Jun-13 22:00N 49°27' E 001°05'0 0.0
2019-Jun-13 21:30N 49°27' E 001°04'0 0.0
2019-Jun-13 20:57N 49°27' E 001°04'0 0.0
2019-Jun-13 20:30N 49°27' E 001°04'0 0.0
2019-Jun-13 20:00N 49°27' E 001°04'0 0.0
2019-Jun-13 19:30N 49°27' E 001°05'0 0.0
2019-Jun-13 19:00N 49°27' E 001°04'0 0.0
2019-Jun-13 18:24N 49°27' E 001°04'0 0.0
2019-Jun-13 18:00N 49°27' E 001°04'0 0.0
2019-Jun-13 17:30N 49°27' E 001°05'0 0.0
2019-Jun-13 17:00N 49°27' E 001°05'0 0.0
2019-Jun-13 16:27N 49°27' E 001°05'0 0.0
2019-Jun-13 15:54N 49°27' E 001°04'0 0.0
2019-Jun-13 15:24N 49°27' E 001°04'0 0.0
2019-Jun-13 14:57N 49°27' E 001°05'0 0.0
2019-Jun-13 14:30N 49°27' E 001°04'0 0.0
2019-Jun-13 13:57N 49°27' E 001°04'0 0.0
2019-Jun-13 13:21N 49°27' E 001°04'0 0.0
2019-Jun-13 13:00N 49°27' E 001°04'0 0.0
2019-Jun-13 12:21N 49°27' E 001°04'0 0.0
2019-Jun-13 11:57N 49°27' E 001°04'0 0.0
2019-Jun-13 11:21N 49°27' E 001°04'0 0.0
2019-Jun-13 10:57N 49°27' E 001°04'0 0.0
2019-Jun-13 10:27N 49°27' E 001°04'0 0.0
2019-Jun-13 09:57N 49°27' E 001°05'0 0.0
2019-Jun-13 09:21N 49°27' E 001°04'0 0.0
2019-Jun-13 08:54N 49°27' E 001°04'0 0.0
2019-Jun-13 08:21N 49°27' E 001°04'0 0.0
2019-Jun-13 07:51N 49°27' E 001°04'0 0.0
2019-Jun-13 07:30N 49°27' E 001°04'0 0.0
2019-Jun-13 06:57N 49°27' E 001°04'0 0.0
2019-Jun-13 06:27N 49°27' E 001°04'0 0.0
2019-Jun-13 05:57N 49°27' E 001°04'0 0.0
2019-Jun-13 05:30N 49°27' E 001°04'0 0.0
2019-Jun-13 04:57N 49°27' E 001°04'0 0.0
2019-Jun-13 04:21N 49°27' E 001°04'0 0.0
2019-Jun-13 03:51N 49°27' E 001°04'0 0.0
2019-Jun-13 03:27N 49°27' E 001°04'0 0.0
2019-Jun-13 02:57N 49°27' E 001°04'0 0.0
2019-Jun-13 02:27N 49°27' E 001°05'0 0.0
2019-Jun-13 01:57N 49°27' E 001°05'0 0.0
2019-Jun-13 01:24N 49°27' E 001°05'0 0.0
2019-Jun-13 01:00N 49°27' E 001°05'0 0.0
2019-Jun-13 00:27N 49°27' E 001°04'0 0.0
2019-Jun-12 23:57N 49°27' E 001°04'0 0.0
2019-Jun-12 23:27N 49°27' E 001°05'0 0.0
2019-Jun-12 22:48N 49°27' E 001°05'0 0.0
2019-Jun-12 22:30N 49°27' E 001°04'0 0.0
2019-Jun-12 21:51N 49°27' E 001°05'0 0.0
2019-Jun-12 21:24N 49°27' E 001°04'0 0.0
2019-Jun-12 21:00N 49°27' E 001°04'0 0.0
2019-Jun-12 20:27N 49°27' E 001°04'0 0.0
2019-Jun-12 19:54N 49°27' E 001°04'0 0.0
2019-Jun-12 19:30N 49°27' E 001°04'0 0.0
2019-Jun-12 18:57N 49°27' E 001°04'0 0.0
2019-Jun-12 18:27N 49°27' E 001°04'0 0.0
2019-Jun-12 17:48N 49°27' E 001°04'0 0.0
2019-Jun-12 17:06N 49°27' E 001°04'0 0.0
2019-Jun-12 16:51N 49°27' E 001°05'0 0.0
2019-Jun-12 16:21N 49°27' E 001°04'0 0.0
2019-Jun-12 15:51N 49°27' E 001°04'0 0.0
2019-Jun-12 15:27N 49°27' E 001°04'0 0.0
2019-Jun-12 14:57N 49°27' E 001°04'0 0.0
2019-Jun-12 14:30N 49°27' E 001°04'0 0.0
2019-Jun-12 13:51N 49°27' E 001°04'0 0.0
2019-Jun-12 13:24N 49°27' E 001°04'0 0.0
2019-Jun-12 12:54N 49°27' E 001°04'0 0.0
2019-Jun-12 12:21N 49°27' E 001°04'0 0.0
2019-Jun-12 11:51N 49°27' E 001°04'0 0.0
2019-Jun-12 11:27N 49°27' E 001°04'0 0.1
2019-Jun-12 10:51N 49°27' E 001°05'0 0.1
2019-Jun-12 10:21N 49°27' E 001°04'0 0.0
2019-Jun-12 09:57N 49°27' E 001°04'0 0.0
2019-Jun-12 09:30N 49°27' E 001°04'0 0.0
2019-Jun-12 08:57N 49°27' E 001°04'0 0.0
2019-Jun-12 08:21N 49°27' E 001°04'0 0.0
2019-Jun-12 07:54N 49°27' E 001°04'0 0.0
2019-Jun-12 07:27N 49°27' E 001°04'0 0.0
2019-Jun-12 06:57N 49°27' E 001°04'0 0.0
2019-Jun-12 06:27N 49°27' E 001°04'0 0.0
2019-Jun-12 05:54N 49°27' E 001°04'0 0.0
2019-Jun-12 05:24N 49°27' E 001°04'0 0.0
2019-Jun-12 04:54N 49°27' E 001°05'0 0.0
2019-Jun-12 04:27N 49°27' E 001°04'0 0.0
2019-Jun-12 03:51N 49°27' E 001°04'0 0.0
2019-Jun-12 03:27N 49°27' E 001°04'0 0.0
2019-Jun-12 02:57N 49°27' E 001°04'0 0.0
2019-Jun-12 01:54N 49°27' E 001°04'0 0.0
2019-Jun-12 01:30N 49°27' E 001°05'0 0.0
2019-Jun-12 00:57N 49°27' E 001°04'0 0.0
2019-Jun-12 00:24N 49°27' E 001°05'0 0.0
2019-Jun-12 00:00N 49°27' E 001°04'0 0.0
2019-Jun-11 23:24N 49°27' E 001°04'0 0.0
2019-Jun-11 23:00N 49°27' E 001°04'0 0.0
2019-Jun-11 22:27N 49°27' E 001°04'0 0.0
2019-Jun-11 21:51N 49°27' E 001°04'0 0.0
2019-Jun-11 21:27N 49°27' E 001°05'0 0.0
2019-Jun-11 20:57N 49°27' E 001°04'0 0.0
2019-Jun-11 20:27N 49°27' E 001°04'0 0.0
2019-Jun-11 20:00N 49°27' E 001°04'0 0.0
2019-Jun-11 19:24N 49°27' E 001°04'0 0.0
2019-Jun-11 18:57N 49°27' E 001°04'0 0.0
2019-Jun-11 18:21N 49°27' E 001°05'0 0.0
2019-Jun-11 17:51N 49°27' E 001°05'0 0.0
2019-Jun-11 17:24N 49°27' E 001°05'0 0.0
2019-Jun-11 16:54N 49°27' E 001°04'0 0.0
2019-Jun-11 16:27N 49°27' E 001°04'0 0.0
2019-Jun-11 15:54N 49°27' E 001°05'0 0.0
2019-Jun-11 15:06N 49°27' E 001°04'0 0.0
2019-Jun-11 14:57N 49°27' E 001°04'0 0.0
2019-Jun-11 14:21N 49°27' E 001°04'0 0.0
2019-Jun-11 13:51N 49°27' E 001°04'0 0.0
2019-Jun-11 13:15N 49°27' E 001°04'0 0.0
2019-Jun-11 13:00N 49°27' E 001°04'0 0.0
2019-Jun-11 12:24N 49°27' E 001°04'0 0.0
2019-Jun-11 11:57N 49°27' E 001°04'0 0.0
2019-Jun-11 11:27N 49°27' E 001°04'0 0.0
2019-Jun-11 10:57N 49°27' E 001°05'0 0.0
2019-Jun-11 10:24N 49°27' E 001°05'0 0.0
2019-Jun-11 09:57N 49°27' E 001°04'0 0.0
2019-Jun-11 09:21N 49°27' E 001°04'0 0.0
2019-Jun-11 08:57N 49°27' E 001°04'0 0.0
2019-Jun-11 08:30N 49°27' E 001°04'0 0.0
2019-Jun-11 08:00N 49°27' E 001°04'0 0.0
2019-Jun-11 07:21N 49°27' E 001°04'0 0.0
2019-Jun-11 06:57N 49°27' E 001°04'0 0.0
2019-Jun-11 06:27N 49°27' E 001°05'0 0.0
2019-Jun-11 05:57N 49°27' E 001°04'0 0.0
2019-Jun-11 05:27N 49°27' E 001°04'0 0.0
2019-Jun-11 04:57N 49°27' E 001°04'0 0.0
2019-Jun-11 04:09N 49°27' E 001°04'0 0.0
2019-Jun-11 03:57N 49°27' E 001°04'0 0.0
2019-Jun-11 03:27N 49°27' E 001°04'0 0.0
2019-Jun-11 02:57N 49°27' E 001°05'0 0.0
2019-Jun-11 02:21N 49°27' E 001°04'0 0.0
2019-Jun-11 02:00N 49°27' E 001°04'0 0.0
2019-Jun-11 01:24N 49°27' E 001°04'0 0.0
2019-Jun-11 00:54N 49°27' E 001°04'0 0.0
2019-Jun-11 00:30N 49°27' E 001°04'0 0.0
2019-Jun-11 00:00N 49°27' E 001°04'0 0.0
2019-Jun-10 23:27N 49°27' E 001°04'0 0.0
2019-Jun-10 22:57N 49°27' E 001°04'0 0.0
2019-Jun-10 22:24N 49°27' E 001°05'0 0.0
2019-Jun-10 21:57N 49°27' E 001°05'0 0.0
2019-Jun-10 21:27N 49°27' E 001°05'0 0.0
2019-Jun-10 20:57N 49°27' E 001°04'0 0.0
2019-Jun-10 20:27N 49°27' E 001°04'0 0.0
2019-Jun-10 19:57N 49°27' E 001°04'0 0.0
2019-Jun-10 19:27N 49°27' E 001°04'0 0.0
2019-Jun-10 18:51N 49°27' E 001°04'0 0.0
2019-Jun-10 18:30N 49°27' E 001°04'0 0.0
2019-Jun-10 17:57N 49°27' E 001°04'0 0.0
2019-Jun-10 17:30N 49°27' E 001°04'0 0.0
2019-Jun-10 16:57N 49°27' E 001°05'0 0.0
2019-Jun-10 16:27N 49°27' E 001°04'0 0.0
2019-Jun-10 15:57N 49°27' E 001°04'0 0.0
2019-Jun-10 15:30N 49°27' E 001°05'0 0.0
2019-Jun-10 14:54N 49°27' E 001°04'0 0.0
2019-Jun-10 14:27N 49°27' E 001°04'0 0.0
2019-Jun-10 13:54N 49°27' E 001°04'0 0.0
2019-Jun-10 13:27N 49°27' E 001°05'0 0.0
2019-Jun-10 12:57N 49°27' E 001°04'0 0.0
2019-Jun-10 12:27N 49°27' E 001°04'0 0.0
2019-Jun-10 12:00N 49°27' E 001°04'0 0.0
2019-Jun-10 11:21N 49°27' E 001°04'0 0.0
2019-Jun-10 10:51N 49°27' E 001°04'0 0.0
2019-Jun-10 10:27N 49°27' E 001°04'0 0.0
2019-Jun-10 09:54N 49°27' E 001°05'0 0.0
2019-Jun-10 09:24N 49°27' E 001°04'0 0.0
2019-Jun-10 08:51N 49°27' E 001°04'0 0.0
2019-Jun-10 08:24N 49°27' E 001°04'0 0.0
2019-Jun-10 07:39N 49°27' E 001°04'0 0.0
2019-Jun-10 07:27N 49°27' E 001°04'0 0.0
2019-Jun-10 06:51N 49°27' E 001°05'0 0.0
2019-Jun-10 06:21N 49°27' E 001°04'0 0.0
2019-Jun-10 05:57N 49°27' E 001°04'0 0.0
2019-Jun-10 05:30N 49°27' E 001°04'0 0.0
2019-Jun-10 04:54N 49°27' E 001°04'0 0.0
2019-Jun-10 04:27N 49°27' E 001°04'0 0.0
2019-Jun-10 03:54N 49°27' E 001°04'0 0.0
2019-Jun-10 03:24N 49°27' E 001°05'0 0.0
2019-Jun-10 02:39N 49°27' E 001°05'0 0.0
2019-Jun-10 02:27N 49°27' E 001°05'0 0.0
2019-Jun-10 01:54N 49°27' E 001°04'0 0.0
2019-Jun-10 01:27N 49°27' E 001°05'0 0.0
2019-Jun-10 00:57N 49°27' E 001°04'0 0.0
2019-Jun-10 00:27N 49°27' E 001°04'0 0.0
2019-Jun-09 23:54N 49°27' E 001°05'0 0.0
2019-Jun-09 23:27N 49°27' E 001°04'0 0.0
2019-Jun-09 22:57N 49°27' E 001°04'0 0.0
2019-Jun-09 22:24N 49°27' E 001°05'0 0.0
2019-Jun-09 21:54N 49°27' E 001°05'0 0.0
2019-Jun-09 21:30N 49°27' E 001°04'0 0.0
2019-Jun-09 20:57N 49°27' E 001°04'0 0.0
2019-Jun-09 20:30N 49°27' E 001°04'0 0.0
2019-Jun-09 19:57N 49°27' E 001°05'0 0.0
2019-Jun-09 19:27N 49°27' E 001°04'0 0.0
2019-Jun-09 18:57N 49°27' E 001°04'0 0.0
2019-Jun-09 18:27N 49°27' E 001°04'0 0.0
2019-Jun-09 17:54N 49°27' E 001°04'0 0.0
2019-Jun-09 17:27N 49°27' E 001°04'0 0.0
2019-Jun-09 16:54N 49°27' E 001°05'0 0.0
2019-Jun-09 16:24N 49°27' E 001°04'0 0.0
2019-Jun-09 15:57N 49°27' E 001°04'0 0.0
2019-Jun-09 15:24N 49°27' E 001°04'0 0.0
2019-Jun-09 14:54N 49°27' E 001°04'0 0.0
2019-Jun-09 14:27N 49°27' E 001°04'0 0.0
2019-Jun-09 13:57N 49°27' E 001°04'0 0.0
2019-Jun-09 13:24N 49°27' E 001°04'0 0.0
2019-Jun-09 12:42N 49°27' E 001°04'0 0.0
2019-Jun-09 12:24N 49°27' E 001°04'0 0.0
2019-Jun-09 11:57N 49°27' E 001°04'0 0.0
2019-Jun-09 11:30N 49°27' E 001°04'0 0.0
2019-Jun-09 11:00N 49°27' E 001°05'0 0.0
2019-Jun-09 10:30N 49°27' E 001°04'0 0.0
2019-Jun-09 09:57N 49°27' E 001°04'0 0.0
2019-Jun-09 09:27N 49°27' E 001°04'0 0.0
2019-Jun-09 08:57N 49°27' E 001°04'0 0.0
2019-Jun-09 08:24N 49°27' E 001°04'0 0.0
2019-Jun-09 08:00N 49°27' E 001°05'0 0.0
2019-Jun-09 07:24N 49°27' E 001°04'0 0.0
2019-Jun-09 07:00N 49°27' E 001°04'0 0.0
2019-Jun-09 06:30N 49°27' E 001°05'0 0.0
2019-Jun-09 06:00N 49°27' E 001°05'0 0.0
2019-Jun-09 05:30N 49°27' E 001°05'0 0.0
2019-Jun-09 05:00N 49°27' E 001°05'0 0.0
2019-Jun-09 03:57N 49°27' E 001°04'0 0.0
2019-Jun-09 03:19N 49°27' E 001°04'0 0.0
2019-Jun-09 02:58N 49°27' E 001°04'0 0.0
2019-Jun-09 02:28N 49°27' E 001°05'0 0.0
2019-Jun-09 01:58N 49°27' E 001°04'0 0.0
2019-Jun-09 01:22N 49°27' E 001°04'0 0.1
2019-Jun-09 00:58N 49°27' E 001°04'0 0.0
2019-Jun-09 00:28N 49°27' E 001°04'0 0.0
2019-Jun-08 23:49N 49°27' E 001°04'0 0.0
2019-Jun-08 23:22N 49°27' E 001°04'0 0.0
2019-Jun-08 23:01N 49°27' E 001°05'0 0.0
2019-Jun-08 22:28N 49°27' E 001°05'0 0.0
2019-Jun-08 22:01N 49°27' E 001°05'0 0.0
2019-Jun-08 21:30N 49°27' E 001°04'0 0.0
2019-Jun-08 21:01N 49°27' E 001°04'0 0.0
2019-Jun-08 20:30N 49°27' E 001°04'0 0.0
2019-Jun-08 20:01N 49°27' E 001°05'0 0.0
2019-Jun-08 19:04N 49°27' E 001°04'0 0.0
2019-Jun-08 18:55N 49°27' E 001°05'0 0.0
2019-Jun-08 18:28N 49°27' E 001°04'0 0.0
2019-Jun-08 17:58N 49°27' E 001°04'0 0.0
2019-Jun-08 17:28N 49°27' E 001°05'0 0.0
2019-Jun-08 16:58N 49°27' E 001°05'0 0.0
2019-Jun-08 16:31N 49°27' E 001°05'0 0.0
2019-Jun-08 16:01N 49°27' E 001°04'0 0.0
2019-Jun-08 15:30N 49°27' E 001°05'0 0.0
2019-Jun-08 15:01N 49°27' E 001°04'0 0.0
2019-Jun-08 14:28N 49°27' E 001°04'0 0.0
2019-Jun-08 13:58N 49°27' E 001°04'0 0.0
2019-Jun-08 13:22N 49°27' E 001°04'0 0.0
2019-Jun-08 12:58N 49°27' E 001°05'0 0.0
2019-Jun-08 12:28N 49°27' E 001°04'0 0.0
2019-Jun-08 12:01N 49°27' E 001°05'0 0.0
2019-Jun-08 11:27N 49°27' E 001°04'0 0.0
2019-Jun-08 10:52N 49°27' E 001°04'0 0.0
2019-Jun-08 10:28N 49°27' E 001°04'0 0.0
2019-Jun-08 09:58N 49°27' E 001°05'0 0.0
2019-Jun-08 09:31N 49°27' E 001°04'0 0.0
2019-Jun-08 09:01N 49°27' E 001°04'0 0.0
2019-Jun-08 08:19N 49°27' E 001°04'0 0.0
2019-Jun-08 08:01N 49°27' E 001°04'0 0.0
2019-Jun-08 07:28N 49°27' E 001°04'0 0.0
2019-Jun-08 06:48N 49°27' E 001°04'0 0.0
2019-Jun-08 06:31N 49°27' E 001°04'0 0.0
2019-Jun-08 05:52N 49°27' E 001°04'0 0.0
2019-Jun-08 05:28N 49°27' E 001°04'0 0.0
2019-Jun-08 05:01N 49°27' E 001°04'0 0.0
2019-Jun-08 04:28N 49°27' E 001°05'0 0.0
2019-Jun-08 03:58N 49°27' E 001°05'0 0.0
2019-Jun-08 03:24N 49°27' E 001°04'0 0.0
2019-Jun-08 02:58N 49°27' E 001°04'0 0.0
2019-Jun-08 02:28N 49°27' E 001°05'0 0.0
2019-Jun-08 02:01N 49°27' E 001°04'0 0.0
2019-Jun-08 01:28N 49°27' E 001°05'0 0.0
2019-Jun-08 00:55N 49°27' E 001°04'0 0.0
2019-Jun-08 00:25N 49°27' E 001°04'0 0.0
2019-Jun-07 23:52N 49°27' E 001°04'0 0.0
2019-Jun-07 23:25N 49°27' E 001°04'0 0.0
2019-Jun-07 22:58N 49°27' E 001°04'0 0.0
2019-Jun-07 22:28N 49°27' E 001°05'0 0.0
2019-Jun-07 21:58N 49°27' E 001°04'0 0.0
2019-Jun-07 21:28N 49°27' E 001°04'0 0.0
2019-Jun-07 20:58N 49°27' E 001°04'0 0.0
2019-Jun-07 20:28N 49°27' E 001°04'0 0.0
2019-Jun-07 19:58N 49°27' E 001°04'0 0.0
2019-Jun-07 19:28N 49°27' E 001°04'0 0.0
2019-Jun-07 18:49N 49°27' E 001°04'0 0.0
2019-Jun-07 18:25N 49°27' E 001°05'0 0.0
2019-Jun-07 17:58N 49°27' E 001°05'0 0.0
2019-Jun-07 17:28N 49°27' E 001°04'0 0.0
2019-Jun-07 16:58N 49°27' E 001°04'0 0.0
2019-Jun-07 16:31N 49°27' E 001°05'0 0.0
2019-Jun-07 15:55N 49°27' E 001°04'0 0.0
2019-Jun-07 15:28N 49°27' E 001°04'0 0.0
2019-Jun-07 15:01N 49°27' E 001°04'0 0.0
2019-Jun-07 14:28N 49°27' E 001°05'0 0.0
2019-Jun-07 14:01N 49°27' E 001°04'0 0.0
2019-Jun-07 13:28N 49°27' E 001°04'0 0.0
2019-Jun-07 12:49N 49°27' E 001°04'0 0.0
2019-Jun-07 12:16N 49°27' E 001°04'0 0.0
2019-Jun-07 12:01N 49°27' E 001°05'0 0.0
2019-Jun-07 11:28N 49°27' E 001°04'0 0.0
2019-Jun-07 10:58N 49°27' E 001°05'0 0.0
2019-Jun-07 10:28N 49°27' E 001°05'0 0.0
2019-Jun-07 09:58N 49°27' E 001°04'0 0.0
2019-Jun-07 09:31N 49°27' E 001°04'0 0.0
2019-Jun-07 09:01N 49°27' E 001°04'0 0.0
2019-Jun-07 08:31N 49°27' E 001°04'0 0.0
2019-Jun-07 07:58N 49°27' E 001°04'0 0.0
2019-Jun-07 07:28N 49°27' E 001°04'0 0.0
2019-Jun-07 06:55N 49°27' E 001°04'0 0.0
2019-Jun-07 06:28N 49°27' E 001°04'0 0.0
2019-Jun-07 06:00N 49°27' E 001°04'0 0.0
2019-Jun-07 05:31N 49°27' E 001°04'0 0.0
2019-Jun-07 04:58N 49°27' E 001°04'0 0.0
2019-Jun-07 04:27N 49°27' E 001°04'0 0.0
2019-Jun-07 03:49N 49°27' E 001°04'0 0.0
2019-Jun-07 03:30N 49°27' E 001°04'0 0.0
2019-Jun-07 02:58N 49°27' E 001°04'0 0.0
2019-Jun-07 02:28N 49°27' E 001°05'0 0.0
2019-Jun-07 01:58N 49°27' E 001°04'0 0.0
2019-Jun-07 01:25N 49°27' E 001°04'0 0.0
2019-Jun-07 01:01N 49°27' E 001°04'1 1.7
2019-Jun-07 00:28N 49°27' E 001°03'0 0.0
2019-Jun-06 23:58N 49°27' E 001°03'0 0.0
2019-Jun-06 23:28N 49°27' E 001°03'0 0.0
2019-Jun-06 22:58N 49°27' E 001°03'  

Dump ship's entire track history